sensor_id;sensor_type;location;lat;lon;timestamp;P1;durP1;ratioP1;P2;durP2;ratioP2
61003;SDS011;46889;37.310;13.582;2022-08-21T00:02:13;10.52;;;3.60;;
61003;SDS011;46889;37.310;13.582;2022-08-21T00:04:41;16.13;;;3.63;;
61003;SDS011;46889;37.310;13.582;2022-08-21T00:07:08;14.32;;;4.10;;
61003;SDS011;46889;37.310;13.582;2022-08-21T00:09:34;8.13;;;3.15;;
61003;SDS011;46889;37.310;13.582;2022-08-21T00:12:00;14.80;;;3.55;;
61003;SDS011;46889;37.310;13.582;2022-08-21T00:14:26;11.70;;;3.03;;
61003;SDS011;46889;37.310;13.582;2022-08-21T00:16:52;9.77;;;2.85;;
61003;SDS011;46889;37.310;13.582;2022-08-21T00:19:18;11.77;;;3.13;;
61003;SDS011;46889;37.310;13.582;2022-08-21T00:21:46;9.43;;;3.22;;
61003;SDS011;46889;37.310;13.582;2022-08-21T00:24:12;9.95;;;3.20;;
61003;SDS011;46889;37.310;13.582;2022-08-21T00:26:38;18.48;;;3.60;;
61003;SDS011;46889;37.310;13.582;2022-08-21T00:29:04;14.98;;;4.07;;
61003;SDS011;46889;37.310;13.582;2022-08-21T00:31:32;11.20;;;3.40;;
61003;SDS011;46889;37.310;13.582;2022-08-21T00:33:58;11.70;;;3.50;;
61003;SDS011;46889;37.310;13.582;2022-08-21T00:36:24;14.30;;;3.80;;
61003;SDS011;46889;37.310;13.582;2022-08-21T00:38:50;13.10;;;3.60;;
61003;SDS011;46889;37.310;13.582;2022-08-21T00:41:16;12.15;;;4.03;;
61003;SDS011;46889;37.310;13.582;2022-08-21T00:43:42;12.45;;;4.38;;
61003;SDS011;46889;37.310;13.582;2022-08-21T00:46:08;14.13;;;4.38;;
61003;SDS011;46889;37.310;13.582;2022-08-21T00:48:34;12.02;;;4.60;;
61003;SDS011;46889;37.310;13.582;2022-08-21T00:53:31;13.65;;;3.97;;
61003;SDS011;46889;37.310;13.582;2022-08-21T00:55:59;10.88;;;4.00;;
61003;SDS011;46889;37.310;13.582;2022-08-21T00:58:27;13.65;;;3.95;;
61003;SDS011;46889;37.310;13.582;2022-08-21T01:00:55;10.35;;;3.90;;
61003;SDS011;46889;37.310;13.582;2022-08-21T01:03:23;11.70;;;3.60;;
61003;SDS011;46889;37.310;13.582;2022-08-21T01:05:53;13.20;;;3.40;;
61003;SDS011;46889;37.310;13.582;2022-08-21T01:08:19;11.23;;;3.20;;
61003;SDS011;46889;37.310;13.582;2022-08-21T01:10:47;11.77;;;3.75;;
61003;SDS011;46889;37.310;13.582;2022-08-21T01:13:14;13.75;;;3.38;;
61003;SDS011;46889;37.310;13.582;2022-08-21T01:15:43;13.63;;;2.70;;
61003;SDS011;46889;37.310;13.582;2022-08-21T01:18:13;9.93;;;3.30;;
61003;SDS011;46889;37.310;13.582;2022-08-21T01:23:49;11.13;;;3.72;;
61003;SDS011;46889;37.310;13.582;2022-08-21T01:26:19;9.85;;;3.17;;
61003;SDS011;46889;37.310;13.582;2022-08-21T01:28:58;11.75;;;3.20;;
61003;SDS011;46889;37.310;13.582;2022-08-21T01:31:48;9.02;;;3.10;;
61003;SDS011;46889;37.310;13.582;2022-08-21T01:34:15;9.68;;;2.85;;
61003;SDS011;46889;37.310;13.582;2022-08-21T01:36:41;10.70;;;2.70;;
61003;SDS011;46889;37.310;13.582;2022-08-21T01:39:08;13.60;;;3.30;;
61003;SDS011;46889;37.310;13.582;2022-08-21T01:41:35;12.05;;;3.35;;
61003;SDS011;46889;37.310;13.582;2022-08-21T01:44:01;13.63;;;2.85;;
61003;SDS011;46889;37.310;13.582;2022-08-21T01:46:28;8.50;;;2.63;;
61003;SDS011;46889;37.310;13.582;2022-08-21T01:48:54;8.70;;;2.65;;
61003;SDS011;46889;37.310;13.582;2022-08-21T01:51:20;10.52;;;3.10;;
61003;SDS011;46889;37.310;13.582;2022-08-21T01:53:46;9.45;;;2.45;;
61003;SDS011;46889;37.310;13.582;2022-08-21T01:56:14;13.07;;;2.90;;
61003;SDS011;46889;37.310;13.582;2022-08-21T01:58:42;8.23;;;2.40;;
61003;SDS011;46889;37.310;13.582;2022-08-21T02:01:09;10.75;;;2.50;;
61003;SDS011;46889;37.310;13.582;2022-08-21T02:03:36;10.00;;;2.95;;
61003;SDS011;46889;37.310;13.582;2022-08-21T02:06:03;8.57;;;2.38;;
61003;SDS011;46889;37.310;13.582;2022-08-21T02:08:30;9.38;;;2.92;;
61003;SDS011;46889;37.310;13.582;2022-08-21T02:10:56;10.38;;;2.60;;
61003;SDS011;46889;37.310;13.582;2022-08-21T02:13:22;10.15;;;2.50;;
61003;SDS011;46889;37.310;13.582;2022-08-21T02:15:48;11.48;;;3.08;;
61003;SDS011;46889;37.310;13.582;2022-08-21T02:18:15;9.93;;;3.22;;
61003;SDS011;46889;37.310;13.582;2022-08-21T02:20:42;16.02;;;3.60;;
61003;SDS011;46889;37.310;13.582;2022-08-21T02:23:10;15.10;;;4.10;;
61003;SDS011;46889;37.310;13.582;2022-08-21T02:25:38;16.92;;;4.55;;
61003;SDS011;46889;37.310;13.582;2022-08-21T02:28:06;12.95;;;5.70;;
61003;SDS011;46889;37.310;13.582;2022-08-21T02:30:35;14.57;;;6.18;;
61003;SDS011;46889;37.310;13.582;2022-08-21T02:33:04;16.48;;;6.35;;
61003;SDS011;46889;37.310;13.582;2022-08-21T02:35:31;15.02;;;5.57;;
61003;SDS011;46889;37.310;13.582;2022-08-21T02:37:58;16.80;;;6.00;;
61003;SDS011;46889;37.310;13.582;2022-08-21T02:40:28;14.20;;;5.90;;
61003;SDS011;46889;37.310;13.582;2022-08-21T02:42:57;16.33;;;6.22;;
61003;SDS011;46889;37.310;13.582;2022-08-21T02:45:23;12.95;;;5.75;;
61003;SDS011;46889;37.310;13.582;2022-08-21T02:47:50;12.90;;;5.55;;
61003;SDS011;46889;37.310;13.582;2022-08-21T02:50:23;14.30;;;5.40;;
61003;SDS011;46889;37.310;13.582;2022-08-21T02:52:51;13.07;;;4.45;;
61003;SDS011;46889;37.310;13.582;2022-08-21T02:57:47;8.85;;;3.90;;
61003;SDS011;46889;37.310;13.582;2022-08-21T03:00:15;12.60;;;4.30;;
61003;SDS011;46889;37.310;13.582;2022-08-21T03:02:42;11.85;;;4.10;;
61003;SDS011;46889;37.310;13.582;2022-08-21T03:05:10;9.85;;;3.63;;
61003;SDS011;46889;37.310;13.582;2022-08-21T03:07:37;9.02;;;3.05;;
61003;SDS011;46889;37.310;13.582;2022-08-21T03:10:04;12.07;;;3.72;;
61003;SDS011;46889;37.310;13.582;2022-08-21T03:12:31;13.43;;;3.55;;
61003;SDS011;46889;37.310;13.582;2022-08-21T03:14:57;15.65;;;3.78;;
61003;SDS011;46889;37.310;13.582;2022-08-21T03:17:24;11.48;;;4.18;;
61003;SDS011;46889;37.310;13.582;2022-08-21T03:19:50;14.45;;;3.63;;
61003;SDS011;46889;37.310;13.582;2022-08-21T03:22:16;10.75;;;3.92;;
61003;SDS011;46889;37.310;13.582;2022-08-21T03:24:42;11.25;;;3.58;;
61003;SDS011;46889;37.310;13.582;2022-08-21T03:27:10;9.65;;;3.25;;
61003;SDS011;46889;37.310;13.582;2022-08-21T03:29:38;14.63;;;3.33;;
61003;SDS011;46889;37.310;13.582;2022-08-21T03:32:05;9.43;;;3.03;;
61003;SDS011;46889;37.310;13.582;2022-08-21T03:34:35;11.60;;;3.33;;
61003;SDS011;46889;37.310;13.582;2022-08-21T03:37:02;14.18;;;3.00;;
61003;SDS011;46889;37.310;13.582;2022-08-21T03:39:32;8.23;;;2.78;;
61003;SDS011;46889;37.310;13.582;2022-08-21T03:41:58;13.18;;;2.80;;
61003;SDS011;46889;37.310;13.582;2022-08-21T03:44:25;8.65;;;2.83;;
61003;SDS011;46889;37.310;13.582;2022-08-21T03:46:54;11.30;;;2.67;;
61003;SDS011;46889;37.310;13.582;2022-08-21T03:49:21;6.63;;;2.85;;
61003;SDS011;46889;37.310;13.582;2022-08-21T03:51:47;9.90;;;2.80;;
61003;SDS011;46889;37.310;13.582;2022-08-21T03:54:13;9.65;;;2.63;;
61003;SDS011;46889;37.310;13.582;2022-08-21T03:56:39;8.27;;;2.65;;
61003;SDS011;46889;37.310;13.582;2022-08-21T03:59:05;9.77;;;3.00;;
61003;SDS011;46889;37.310;13.582;2022-08-21T04:03:58;11.23;;;2.97;;
61003;SDS011;46889;37.310;13.582;2022-08-21T04:06:24;7.68;;;2.88;;
61003;SDS011;46889;37.310;13.582;2022-08-21T04:08:51;10.38;;;3.08;;
61003;SDS011;46889;37.310;13.582;2022-08-21T04:11:18;9.35;;;2.97;;
61003;SDS011;46889;37.310;13.582;2022-08-21T04:13:45;7.55;;;2.63;;
61003;SDS011;46889;37.310;13.582;2022-08-21T04:16:11;10.23;;;2.78;;
61003;SDS011;46889;37.310;13.582;2022-08-21T04:21:04;12.45;;;3.22;;
61003;SDS011;46889;37.310;13.582;2022-08-21T04:23:32;9.38;;;2.58;;
61003;SDS011;46889;37.310;13.582;2022-08-21T04:28:25;7.75;;;2.90;;
61003;SDS011;46889;37.310;13.582;2022-08-21T04:30:52;10.07;;;2.53;;
61003;SDS011;46889;37.310;13.582;2022-08-21T04:33:20;9.02;;;2.70;;
61003;SDS011;46889;37.310;13.582;2022-08-21T04:35:47;5.88;;;2.10;;
61003;SDS011;46889;37.310;13.582;2022-08-21T04:38:14;7.50;;;2.42;;
61003;SDS011;46889;37.310;13.582;2022-08-21T04:40:40;7.18;;;3.00;;
61003;SDS011;46889;37.310;13.582;2022-08-21T04:43:08;10.85;;;2.78;;
61003;SDS011;46889;37.310;13.582;2022-08-21T04:45:36;10.57;;;3.10;;
61003;SDS011;46889;37.310;13.582;2022-08-21T04:48:06;9.45;;;3.13;;
61003;SDS011;46889;37.310;13.582;2022-08-21T04:53:06;11.23;;;3.95;;
61003;SDS011;46889;37.310;13.582;2022-08-21T04:55:39;11.10;;;4.25;;
61003;SDS011;46889;37.310;13.582;2022-08-21T04:58:07;12.85;;;4.32;;
61003;SDS011;46889;37.310;13.582;2022-08-21T05:00:37;10.35;;;3.35;;
61003;SDS011;46889;37.310;13.582;2022-08-21T05:03:04;11.23;;;3.30;;
61003;SDS011;46889;37.310;13.582;2022-08-21T05:05:31;8.45;;;3.75;;
61003;SDS011;46889;37.310;13.582;2022-08-21T05:07:59;10.48;;;3.42;;
61003;SDS011;46889;37.310;13.582;2022-08-21T05:10:26;8.40;;;3.60;;
61003;SDS011;46889;37.310;13.582;2022-08-21T05:12:53;9.27;;;2.70;;
61003;SDS011;46889;37.310;13.582;2022-08-21T05:15:20;8.18;;;2.88;;
61003;SDS011;46889;37.310;13.582;2022-08-21T05:17:46;6.45;;;2.33;;
61003;SDS011;46889;37.310;13.582;2022-08-21T05:20:12;6.50;;;2.00;;
61003;SDS011;46889;37.310;13.582;2022-08-21T05:22:39;6.38;;;1.98;;
61003;SDS011;46889;37.310;13.582;2022-08-21T05:25:08;6.85;;;1.80;;
61003;SDS011;46889;37.310;13.582;2022-08-21T05:27:35;7.85;;;2.33;;
61003;SDS011;46889;37.310;13.582;2022-08-21T05:30:02;5.70;;;1.75;;
61003;SDS011;46889;37.310;13.582;2022-08-21T05:32:28;6.38;;;1.85;;
61003;SDS011;46889;37.310;13.582;2022-08-21T05:34:54;7.75;;;2.00;;
61003;SDS011;46889;37.310;13.582;2022-08-21T05:37:20;5.82;;;1.88;;
61003;SDS011;46889;37.310;13.582;2022-08-21T05:39:46;5.53;;;1.40;;
61003;SDS011;46889;37.310;13.582;2022-08-21T05:42:12;6.10;;;1.42;;
61003;SDS011;46889;37.310;13.582;2022-08-21T05:44:38;4.32;;;1.33;;
61003;SDS011;46889;37.310;13.582;2022-08-21T05:47:05;6.25;;;1.55;;
61003;SDS011;46889;37.310;13.582;2022-08-21T05:49:33;4.90;;;1.60;;
61003;SDS011;46889;37.310;13.582;2022-08-21T05:52:00;5.80;;;1.60;;
61003;SDS011;46889;37.310;13.582;2022-08-21T05:54:26;6.15;;;1.50;;
61003;SDS011;46889;37.310;13.582;2022-08-21T05:56:53;5.93;;;1.50;;
61003;SDS011;46889;37.310;13.582;2022-08-21T05:59:20;5.78;;;1.55;;
61003;SDS011;46889;37.310;13.582;2022-08-21T06:01:46;8.93;;;2.03;;
61003;SDS011;46889;37.310;13.582;2022-08-21T06:04:12;7.07;;;1.67;;
61003;SDS011;46889;37.310;13.582;2022-08-21T06:06:39;5.75;;;1.40;;
61003;SDS011;46889;37.310;13.582;2022-08-21T06:09:05;4.93;;;1.60;;
61003;SDS011;46889;37.310;13.582;2022-08-21T06:11:31;5.30;;;1.63;;
61003;SDS011;46889;37.310;13.582;2022-08-21T06:13:58;5.90;;;1.70;;
61003;SDS011;46889;37.310;13.582;2022-08-21T06:16:25;7.13;;;2.08;;
61003;SDS011;46889;37.310;13.582;2022-08-21T06:18:52;7.05;;;3.03;;
61003;SDS011;46889;37.310;13.582;2022-08-21T06:21:18;10.77;;;4.55;;
61003;SDS011;46889;37.310;13.582;2022-08-21T06:23:44;13.13;;;5.32;;
61003;SDS011;46889;37.310;13.582;2022-08-21T06:26:11;12.05;;;4.63;;
61003;SDS011;46889;37.310;13.582;2022-08-21T06:28:38;10.27;;;3.42;;
61003;SDS011;46889;37.310;13.582;2022-08-21T06:31:15;10.23;;;3.47;;
61003;SDS011;46889;37.310;13.582;2022-08-21T06:33:43;7.45;;;2.55;;
61003;SDS011;46889;37.310;13.582;2022-08-21T06:36:10;6.25;;;2.33;;
61003;SDS011;46889;37.310;13.582;2022-08-21T06:38:36;7.07;;;1.92;;
61003;SDS011;46889;37.310;13.582;2022-08-21T06:41:02;11.43;;;2.00;;
61003;SDS011;46889;37.310;13.582;2022-08-21T06:43:29;6.13;;;2.00;;
61003;SDS011;46889;37.310;13.582;2022-08-21T06:45:55;6.93;;;2.17;;
61003;SDS011;46889;37.310;13.582;2022-08-21T06:48:21;8.45;;;2.00;;
61003;SDS011;46889;37.310;13.582;2022-08-21T06:50:48;7.18;;;2.10;;
61003;SDS011;46889;37.310;13.582;2022-08-21T06:53:16;7.40;;;2.22;;
61003;SDS011;46889;37.310;13.582;2022-08-21T06:55:44;8.50;;;2.10;;
61003;SDS011;46889;37.310;13.582;2022-08-21T06:58:11;5.97;;;2.13;;
61003;SDS011;46889;37.310;13.582;2022-08-21T07:00:41;7.60;;;2.75;;
61003;SDS011;46889;37.310;13.582;2022-08-21T07:03:29;7.77;;;3.10;;
61003;SDS011;46889;37.310;13.582;2022-08-21T07:06:01;9.55;;;3.33;;
61003;SDS011;46889;37.310;13.582;2022-08-21T07:08:28;9.75;;;3.03;;
61003;SDS011;46889;37.310;13.582;2022-08-21T07:10:55;7.78;;;2.50;;
61003;SDS011;46889;37.310;13.582;2022-08-21T07:13:22;13.43;;;3.30;;
61003;SDS011;46889;37.310;13.582;2022-08-21T07:15:49;9.50;;;2.80;;
61003;SDS011;46889;37.310;13.582;2022-08-21T07:18:15;6.75;;;2.53;;
61003;SDS011;46889;37.310;13.582;2022-08-21T07:20:42;9.88;;;3.28;;
61003;SDS011;46889;37.310;13.582;2022-08-21T07:23:10;7.63;;;3.00;;
61003;SDS011;46889;37.310;13.582;2022-08-21T07:25:41;10.48;;;2.80;;
61003;SDS011;46889;37.310;13.582;2022-08-21T07:28:07;8.25;;;3.03;;
61003;SDS011;46889;37.310;13.582;2022-08-21T07:30:33;9.98;;;2.58;;
61003;SDS011;46889;37.310;13.582;2022-08-21T07:32:59;5.97;;;2.10;;
61003;SDS011;46889;37.310;13.582;2022-08-21T07:35:25;7.72;;;1.98;;
61003;SDS011;46889;37.310;13.582;2022-08-21T07:37:53;8.02;;;1.75;;
61003;SDS011;46889;37.310;13.582;2022-08-21T07:40:19;7.15;;;2.08;;
61003;SDS011;46889;37.310;13.582;2022-08-21T07:42:46;5.00;;;1.40;;
61003;SDS011;46889;37.310;13.582;2022-08-21T07:45:15;4.10;;;1.42;;
61003;SDS011;46889;37.310;13.582;2022-08-21T07:47:41;6.22;;;1.40;;
61003;SDS011;46889;37.310;13.582;2022-08-21T07:50:07;4.13;;;1.38;;
61003;SDS011;46889;37.310;13.582;2022-08-21T07:52:34;7.45;;;1.90;;
61003;SDS011;46889;37.310;13.582;2022-08-21T07:55:00;4.65;;;1.50;;
61003;SDS011;46889;37.310;13.582;2022-08-21T07:57:26;6.28;;;1.92;;
61003;SDS011;46889;37.310;13.582;2022-08-21T07:59:52;11.27;;;2.42;;
61003;SDS011;46889;37.310;13.582;2022-08-21T08:02:28;8.35;;;2.10;;
61003;SDS011;46889;37.310;13.582;2022-08-21T08:04:58;18.80;;;2.97;;
61003;SDS011;46889;37.310;13.582;2022-08-21T08:07:26;11.95;;;2.25;;
61003;SDS011;46889;37.310;13.582;2022-08-21T08:09:52;8.50;;;2.55;;
61003;SDS011;46889;37.310;13.582;2022-08-21T08:12:18;9.02;;;1.98;;
61003;SDS011;46889;37.310;13.582;2022-08-21T08:14:45;9.77;;;2.30;;
61003;SDS011;46889;37.310;13.582;2022-08-21T08:17:11;13.13;;;2.35;;
61003;SDS011;46889;37.310;13.582;2022-08-21T08:19:38;8.15;;;2.17;;
61003;SDS011;46889;37.310;13.582;2022-08-21T08:22:14;10.30;;;2.13;;
61003;SDS011;46889;37.310;13.582;2022-08-21T08:24:44;9.43;;;2.30;;
61003;SDS011;46889;37.310;13.582;2022-08-21T08:27:11;7.63;;;2.30;;
61003;SDS011;46889;37.310;13.582;2022-08-21T08:29:37;12.55;;;2.92;;
61003;SDS011;46889;37.310;13.582;2022-08-21T08:32:04;6.15;;;2.30;;
61003;SDS011;46889;37.310;13.582;2022-08-21T08:34:32;9.20;;;2.50;;
61003;SDS011;46889;37.310;13.582;2022-08-21T08:36:59;9.88;;;2.38;;
61003;SDS011;46889;37.310;13.582;2022-08-21T08:39:26;6.05;;;2.13;;
61003;SDS011;46889;37.310;13.582;2022-08-21T08:41:58;10.10;;;2.20;;
61003;SDS011;46889;37.310;13.582;2022-08-21T08:44:45;8.65;;;2.53;;
61003;SDS011;46889;37.310;13.582;2022-08-21T08:47:13;11.18;;;2.50;;
61003;SDS011;46889;37.310;13.582;2022-08-21T08:49:43;10.38;;;2.67;;
61003;SDS011;46889;37.310;13.582;2022-08-21T08:52:22;10.27;;;2.28;;
61003;SDS011;46889;37.310;13.582;2022-08-21T08:57:29;8.80;;;2.00;;
61003;SDS011;46889;37.310;13.582;2022-08-21T08:59:57;9.05;;;2.25;;
61003;SDS011;46889;37.310;13.582;2022-08-21T09:02:26;10.38;;;2.60;;
61003;SDS011;46889;37.310;13.582;2022-08-21T09:04:53;9.52;;;2.50;;
61003;SDS011;46889;37.310;13.582;2022-08-21T09:10:21;9.85;;;2.22;;
61003;SDS011;46889;37.310;13.582;2022-08-21T09:15:52;10.00;;;2.77;;
61003;SDS011;46889;37.310;13.582;2022-08-21T09:26:47;11.98;;;2.35;;
61003;SDS011;46889;37.310;13.582;2022-08-21T09:29:23;10.45;;;1.73;;
61003;SDS011;46889;37.310;13.582;2022-08-21T09:31:54;13.55;;;2.65;;
61003;SDS011;46889;37.310;13.582;2022-08-21T09:36:54;14.02;;;3.40;;
61003;SDS011;46889;37.310;13.582;2022-08-21T09:39:31;14.05;;;2.90;;
61003;SDS011;46889;37.310;13.582;2022-08-21T09:42:07;11.57;;;2.60;;
61003;SDS011;46889;37.310;13.582;2022-08-21T09:44:36;12.70;;;2.90;;
61003;SDS011;46889;37.310;13.582;2022-08-21T09:47:06;11.90;;;2.60;;
61003;SDS011;46889;37.310;13.582;2022-08-21T09:49:35;13.32;;;2.38;;
61003;SDS011;46889;37.310;13.582;2022-08-21T09:52:04;10.90;;;2.45;;
61003;SDS011;46889;37.310;13.582;2022-08-21T09:54:41;10.50;;;2.33;;
61003;SDS011;46889;37.310;13.582;2022-08-21T10:00:10;9.27;;;2.75;;
61003;SDS011;46889;37.310;13.582;2022-08-21T10:02:41;11.40;;;2.60;;
61003;SDS011;46889;37.310;13.582;2022-08-21T10:07:53;19.45;;;3.10;;
61003;SDS011;46889;37.310;13.582;2022-08-21T10:10:26;15.07;;;3.20;;
61003;SDS011;46889;37.310;13.582;2022-08-21T10:12:58;9.55;;;2.40;;
61003;SDS011;46889;37.310;13.582;2022-08-21T10:15:51;14.02;;;2.70;;
61003;SDS011;46889;37.310;13.582;2022-08-21T10:18:31;9.55;;;2.60;;
61003;SDS011;46889;37.310;13.582;2022-08-21T10:21:14;8.10;;;1.88;;
61003;SDS011;46889;37.310;13.582;2022-08-21T10:48:06;21.02;;;3.25;;
61003;SDS011;46889;37.310;13.582;2022-08-21T10:55:59;22.02;;;3.30;;
61003;SDS011;46889;37.310;13.582;2022-08-21T10:58:43;19.95;;;3.38;;
61003;SDS011;46889;37.310;13.582;2022-08-21T11:01:32;18.87;;;3.20;;
61003;SDS011;46889;37.310;13.582;2022-08-21T11:04:16;8.55;;;2.20;;
61003;SDS011;46889;37.310;13.582;2022-08-21T11:07:08;9.95;;;2.22;;
61003;SDS011;46889;37.310;13.582;2022-08-21T11:09:43;9.07;;;2.00;;
61003;SDS011;46889;37.310;13.582;2022-08-21T11:12:24;12.85;;;2.03;;
61003;SDS011;46889;37.310;13.582;2022-08-21T11:15:21;10.38;;;2.10;;
61003;SDS011;46889;37.310;13.582;2022-08-21T11:18:32;6.68;;;2.08;;
61003;SDS011;46889;37.310;13.582;2022-08-21T11:20:44;11.40;;;2.30;;
61003;SDS011;46889;37.310;13.582;2022-08-21T11:23:36;8.52;;;1.92;;
61003;SDS011;46889;37.310;13.582;2022-08-21T11:28:59;15.15;;;2.65;;
61003;SDS011;46889;37.310;13.582;2022-08-21T11:31:37;12.48;;;2.47;;
61003;SDS011;46889;37.310;13.582;2022-08-21T11:34:29;15.38;;;2.30;;
61003;SDS011;46889;37.310;13.582;2022-08-21T11:37:37;14.13;;;2.70;;
61003;SDS011;46889;37.310;13.582;2022-08-21T11:45:55;17.17;;;2.72;;
61003;SDS011;46889;37.310;13.582;2022-08-21T11:48:48;13.52;;;2.30;;
61003;SDS011;46889;37.310;13.582;2022-08-21T11:51:27;15.43;;;2.55;;
61003;SDS011;46889;37.310;13.582;2022-08-21T11:54:13;11.73;;;2.63;;
61003;SDS011;46889;37.310;13.582;2022-08-21T11:56:50;17.45;;;2.55;;
61003;SDS011;46889;37.310;13.582;2022-08-21T11:59:23;12.73;;;2.22;;
61003;SDS011;46889;37.310;13.582;2022-08-21T12:01:58;16.30;;;2.60;;
61003;SDS011;46889;37.310;13.582;2022-08-21T12:04:32;10.32;;;2.55;;
61003;SDS011;46889;37.310;13.582;2022-08-21T12:07:11;13.30;;;2.30;;
61003;SDS011;46889;37.310;13.582;2022-08-21T12:09:40;16.33;;;2.47;;
61003;SDS011;46889;37.310;13.582;2022-08-21T12:12:28;13.35;;;2.00;;
61003;SDS011;46889;37.310;13.582;2022-08-21T12:17:54;12.10;;;2.00;;
61003;SDS011;46889;37.310;13.582;2022-08-21T12:28:26;12.40;;;2.05;;
61003;SDS011;46889;37.310;13.582;2022-08-21T12:30:55;9.43;;;1.80;;
61003;SDS011;46889;37.310;13.582;2022-08-21T12:36:07;14.77;;;2.35;;
61003;SDS011;46889;37.310;13.582;2022-08-21T12:41:25;12.13;;;2.70;;
61003;SDS011;46889;37.310;13.582;2022-08-21T12:44:00;11.13;;;1.42;;
61003;SDS011;46889;37.310;13.582;2022-08-21T12:46:51;8.82;;;1.92;;
61003;SDS011;46889;37.310;13.582;2022-08-21T12:52:14;14.25;;;2.00;;
61003;SDS011;46889;37.310;13.582;2022-08-21T12:54:46;11.68;;;1.98;;
61003;SDS011;46889;37.310;13.582;2022-08-21T12:57:20;10.25;;;2.30;;
61003;SDS011;46889;37.310;13.582;2022-08-21T12:59:56;15.88;;;2.78;;
61003;SDS011;46889;37.310;13.582;2022-08-21T13:02:28;10.00;;;2.67;;
61003;SDS011;46889;37.310;13.582;2022-08-21T13:04:57;8.27;;;2.03;;
61003;SDS011;46889;37.310;13.582;2022-08-21T13:07:30;11.05;;;2.22;;
61003;SDS011;46889;37.310;13.582;2022-08-21T13:10:00;11.40;;;2.42;;
61003;SDS011;46889;37.310;13.582;2022-08-21T13:12:27;8.10;;;2.00;;
61003;SDS011;46889;37.310;13.582;2022-08-21T13:14:58;9.48;;;1.95;;
61003;SDS011;46889;37.310;13.582;2022-08-21T13:17:30;10.93;;;2.40;;
61003;SDS011;46889;37.310;13.582;2022-08-21T13:20:01;5.97;;;1.70;;
61003;SDS011;46889;37.310;13.582;2022-08-21T13:22:31;8.43;;;1.60;;
61003;SDS011;46889;37.310;13.582;2022-08-21T13:25:02;9.68;;;1.88;;
61003;SDS011;46889;37.310;13.582;2022-08-21T13:27:34;7.57;;;1.40;;
61003;SDS011;46889;37.310;13.582;2022-08-21T13:30:02;8.68;;;2.03;;
61003;SDS011;46889;37.310;13.582;2022-08-21T13:32:35;6.85;;;1.90;;
61003;SDS011;46889;37.310;13.582;2022-08-21T13:35:10;7.18;;;1.60;;
61003;SDS011;46889;37.310;13.582;2022-08-21T13:37:42;9.50;;;1.67;;
61003;SDS011;46889;37.310;13.582;2022-08-21T13:40:20;10.68;;;1.75;;
61003;SDS011;46889;37.310;13.582;2022-08-21T13:42:54;11.38;;;1.50;;
61003;SDS011;46889;37.310;13.582;2022-08-21T13:45:25;9.93;;;2.22;;
61003;SDS011;46889;37.310;13.582;2022-08-21T13:47:57;8.20;;;2.05;;
61003;SDS011;46889;37.310;13.582;2022-08-21T13:50:26;12.63;;;2.28;;
61003;SDS011;46889;37.310;13.582;2022-08-21T13:52:57;9.98;;;2.03;;
61003;SDS011;46889;37.310;13.582;2022-08-21T13:55:25;14.90;;;2.80;;
61003;SDS011;46889;37.310;13.582;2022-08-21T13:58:02;18.05;;;3.05;;
61003;SDS011;46889;37.310;13.582;2022-08-21T14:00:30;15.27;;;2.65;;
61003;SDS011;46889;37.310;13.582;2022-08-21T14:03:02;14.35;;;2.97;;
61003;SDS011;46889;37.310;13.582;2022-08-21T14:05:34;11.75;;;2.53;;
61003;SDS011;46889;37.310;13.582;2022-08-21T14:08:08;17.02;;;2.83;;
61003;SDS011;46889;37.310;13.582;2022-08-21T14:10:42;14.82;;;2.88;;
61003;SDS011;46889;37.310;13.582;2022-08-21T14:16:02;11.80;;;2.55;;
61003;SDS011;46889;37.310;13.582;2022-08-21T14:19:05;20.63;;;3.20;;
61003;SDS011;46889;37.310;13.582;2022-08-21T14:21:37;13.30;;;2.85;;
61003;SDS011;46889;37.310;13.582;2022-08-21T14:24:07;11.85;;;3.30;;
61003;SDS011;46889;37.310;13.582;2022-08-21T14:26:36;15.07;;;2.83;;
61003;SDS011;46889;37.310;13.582;2022-08-21T14:29:26;16.52;;;2.92;;
61003;SDS011;46889;37.310;13.582;2022-08-21T14:31:58;14.60;;;2.65;;
61003;SDS011;46889;37.310;13.582;2022-08-21T14:34:33;15.30;;;2.92;;
61003;SDS011;46889;37.310;13.582;2022-08-21T14:36:59;14.88;;;3.28;;
61003;SDS011;46889;37.310;13.582;2022-08-21T14:39:25;14.73;;;2.63;;
61003;SDS011;46889;37.310;13.582;2022-08-21T14:41:51;12.15;;;2.47;;
61003;SDS011;46889;37.310;13.582;2022-08-21T14:44:17;10.27;;;2.63;;
61003;SDS011;46889;37.310;13.582;2022-08-21T14:46:44;13.43;;;2.92;;
61003;SDS011;46889;37.310;13.582;2022-08-21T14:49:11;16.00;;;2.33;;
61003;SDS011;46889;37.310;13.582;2022-08-21T14:54:04;15.75;;;3.10;;
61003;SDS011;46889;37.310;13.582;2022-08-21T14:56:33;12.45;;;2.75;;
61003;SDS011;46889;37.310;13.582;2022-08-21T14:59:02;11.60;;;2.60;;
61003;SDS011;46889;37.310;13.582;2022-08-21T15:01:30;13.00;;;2.88;;
61003;SDS011;46889;37.310;13.582;2022-08-21T15:03:59;15.95;;;3.05;;
61003;SDS011;46889;37.310;13.582;2022-08-21T15:06:25;12.60;;;2.63;;
61003;SDS011;46889;37.310;13.582;2022-08-21T15:08:51;17.73;;;3.30;;
61003;SDS011;46889;37.310;13.582;2022-08-21T15:11:18;10.95;;;2.30;;
61003;SDS011;46889;37.310;13.582;2022-08-21T15:13:46;13.88;;;2.70;;
61003;SDS011;46889;37.310;13.582;2022-08-21T15:16:14;14.43;;;2.50;;
61003;SDS011;46889;37.310;13.582;2022-08-21T15:18:40;12.68;;;2.72;;
61003;SDS011;46889;37.310;13.582;2022-08-21T15:21:07;9.15;;;2.45;;
61003;SDS011;46889;37.310;13.582;2022-08-21T15:23:33;18.42;;;3.00;;
61003;SDS011;46889;37.310;13.582;2022-08-21T15:26:00;14.30;;;3.17;;
61003;SDS011;46889;37.310;13.582;2022-08-21T15:28:26;13.32;;;3.10;;
61003;SDS011;46889;37.310;13.582;2022-08-21T15:30:52;17.85;;;2.85;;
61003;SDS011;46889;37.310;13.582;2022-08-21T15:33:18;15.32;;;2.88;;
61003;SDS011;46889;37.310;13.582;2022-08-21T15:35:45;16.27;;;2.70;;
61003;SDS011;46889;37.310;13.582;2022-08-21T15:40:37;11.93;;;3.15;;
61003;SDS011;46889;37.310;13.582;2022-08-21T15:43:05;11.27;;;2.20;;
61003;SDS011;46889;37.310;13.582;2022-08-21T15:45:34;13.48;;;2.53;;
61003;SDS011;46889;37.310;13.582;2022-08-21T15:48:00;12.07;;;3.00;;
61003;SDS011;46889;37.310;13.582;2022-08-21T15:50:26;10.85;;;2.10;;
61003;SDS011;46889;37.310;13.582;2022-08-21T15:52:54;5.03;;;1.27;;
61003;SDS011;46889;37.310;13.582;2022-08-21T15:55:20;8.05;;;1.65;;
61003;SDS011;46889;37.310;13.582;2022-08-21T16:00:17;6.10;;;1.80;;
61003;SDS011;46889;37.310;13.582;2022-08-21T16:02:48;7.90;;;2.35;;
61003;SDS011;46889;37.310;13.582;2022-08-21T16:05:16;8.32;;;2.08;;
61003;SDS011;46889;37.310;13.582;2022-08-21T16:07:43;6.28;;;1.67;;
61003;SDS011;46889;37.310;13.582;2022-08-21T16:10:10;5.15;;;1.40;;
61003;SDS011;46889;37.310;13.582;2022-08-21T16:12:38;5.68;;;1.50;;
61003;SDS011;46889;37.310;13.582;2022-08-21T16:15:09;6.85;;;1.70;;
61003;SDS011;46889;37.310;13.582;2022-08-21T16:17:38;5.07;;;1.75;;
61003;SDS011;46889;37.310;13.582;2022-08-21T16:20:08;6.95;;;1.92;;
61003;SDS011;46889;37.310;13.582;2022-08-21T16:22:37;5.57;;;1.50;;
61003;SDS011;46889;37.310;13.582;2022-08-21T16:25:04;5.75;;;1.75;;
61003;SDS011;46889;37.310;13.582;2022-08-21T16:27:31;5.97;;;1.70;;
61003;SDS011;46889;37.310;13.582;2022-08-21T16:29:58;6.20;;;1.60;;
61003;SDS011;46889;37.310;13.582;2022-08-21T16:32:25;8.40;;;1.75;;
61003;SDS011;46889;37.310;13.582;2022-08-21T16:34:51;7.03;;;1.73;;